| time (UTC) | temp F | wind direction | speed MPH | gust MPH | rain 1hr in | rain 24hr in | rain mn in | humidity % | barometer mb |
| 20260507143037 | 73 | 272 | 1.0 | 3.0 | 0.00 | 0.00 | 0.00 | 30 | 1013.9 |
| 20260507141537 | 71 | 0 | 0.0 | 0.0 | 0.00 | 0.00 | 0.00 | 35 | 1013.8 |
| 20260507140047 | 69 | 158 | 0.0 | 1.0 | 0.00 | 0.00 | 0.00 | 38 | 1013.7 |
| 20260507134541 | 66 | 0 | 0.0 | 0.0 | 0.00 | 0.00 | 0.00 | 43 | 1013.7 |
| 20260507133035 | 63 | 0 | 0.0 | 0.0 | 0.00 | 0.00 | 0.00 | 48 | 1013.6 |
| 20260507131541 | 62 | 0 | 0.0 | 0.0 | 0.00 | 0.00 | 0.00 | 48 | 1013.3 |
| 20260507130037 | 60 | 0 | 0.0 | 1.0 | 0.00 | 0.00 | 0.00 | 50 | 1013.3 |
| 20260507124538 | 59 | 0 | 0.0 | 0.0 | 0.00 | 0.00 | 0.00 | 52 | 1013.3 |
| 20260507123036 | 59 | 0 | 0.0 | 0.0 | 0.00 | 0.00 | 0.00 | 48 | 1013.4 |
| 20260507121536 | 61 | 0 | 0.0 | 1.0 | 0.00 | 0.00 | 0.00 | 45 | 1013.3 |
| 20260507120036 | 62 | 217 | 0.0 | 2.0 | 0.00 | 0.00 | 0.00 | 46 | 1013.1 |
| 20260507114536 | 62 | 0 | 0.0 | 1.0 | 0.00 | 0.00 | 0.00 | 46 | 1013.2 |
| 20260507113040 | 61 | 217 | 1.0 | 2.0 | 0.00 | 0.00 | 0.00 | 45 | 1013.2 |
| 20260507111541 | 60 | 0 | 0.0 | 0.0 | 0.00 | 0.00 | 0.00 | 46 | 1013.2 |
| 20260507110037 | 61 | 0 | 0.0 | 0.0 | 0.00 | 0.00 | 0.00 | 47 | 1013.3 |
| 20260507104537 | 61 | 0 | 0.0 | 0.0 | 0.00 | 0.00 | 0.00 | 46 | 1013.5 |
| 20260507103039 | 61 | 0 | 0.0 | 1.0 | 0.00 | 0.00 | 0.00 | 46 | 1013.5 |
| 20260507101556 | 61 | 0 | 0.0 | 0.0 | 0.00 | 0.00 | 0.00 | 48 | 1013.6 |
| 20260507100038 | 62 | 0 | 0.0 | 0.0 | 0.00 | 0.00 | 0.00 | 43 | 1013.8 |
| 20260507094541 | 63 | 0 | 0.0 | 0.0 | 0.00 | 0.00 | 0.00 | 41 | 1013.7 |
| 20260507093034 | 64 | 0 | 0.0 | 1.0 | 0.00 | 0.00 | 0.00 | 40 | 1013.9 |
| 20260507091551 | 65 | 0 | 0.0 | 3.0 | 0.00 | 0.00 | 0.00 | 36 | 1013.9 |
| 20260507090033 | 64 | 0 | 0.0 | 1.0 | 0.00 | 0.00 | 0.00 | 39 | 1014.0 |
| 20260507084538 | 63 | 0 | 0.0 | 0.0 | 0.00 | 0.00 | 0.00 | 42 | 1014.1 |
| 20260507083041 | 65 | 0 | 0.0 | 0.0 | 0.00 | 0.00 | 0.00 | 39 | 1014.1 |
| 20260507081550 | 66 | 0 | 0.0 | 0.0 | 0.00 | 0.00 | 0.00 | 37 | 1014.2 |
| 20260507080033 | 67 | 0 | 0.0 | 0.0 | 0.00 | 0.00 | 0.00 | 37 | 1014.3 |
| 20260507074539 | 67 | 180 | 0.0 | 0.0 | 0.00 | 0.00 | 0.00 | 35 | 1014.2 |
| 20260507073054 | 68 | 0 | 0.0 | 1.0 | 0.00 | 0.00 | 0.00 | 35 | 1014.2 |
| 20260507071538 | 68 | 180 | 0.0 | 1.0 | 0.00 | 0.00 | 0.00 | 34 | 1014.1 |
| 20260507070058 | 68 | 0 | 0.0 | 0.0 | 0.00 | 0.00 | 0.00 | 35 | 1014.2 |
| 20260507064536 | 69 | 0 | 0.0 | 2.0 | 0.00 | 0.00 | 0.00 | 34 | 1014.2 |
| 20260507063037 | 69 | 176 | 0.0 | 2.0 | 0.00 | 0.00 | 0.00 | 33 | 1014.1 |
| 20260507061537 | 69 | 0 | 0.0 | 1.0 | 0.00 | 0.00 | 0.00 | 34 | 1014.2 |
| 20260507060037 | 70 | 0 | 0.0 | 0.0 | 0.00 | 0.00 | 0.00 | 33 | 1013.9 |
| 20260507054533 | 71 | 0 | 0.0 | 0.0 | 0.00 | 0.00 | 0.00 | 34 | 1014.0 |
| 20260507053042 | 72 | 0 | 0.0 | 0.0 | 0.00 | 0.00 | 0.00 | 31 | 1014.0 |
| 20260507051535 | 73 | 0 | 0.0 | 1.0 | 0.00 | 0.00 | 0.00 | 27 | 1013.9 |
| 20260507050037 | 74 | 148 | 0.0 | 0.0 | 0.00 | 0.00 | 0.00 | 27 | 1013.9 |
| 20260507044545 | 75 | 0 | 0.0 | 2.0 | 0.00 | 0.00 | 0.00 | 26 | 1013.7 |
| 20260507043041 | 75 | 154 | 0.0 | 2.0 | 0.00 | 0.00 | 0.00 | 27 | 1013.7 |
| 20260507041538 | 75 | 0 | 0.0 | 0.0 | 0.00 | 0.00 | 0.00 | 26 | 1013.6 |
| 20260507040038 | 76 | 0 | 0.0 | 0.0 | 0.00 | 0.00 | 0.00 | 25 | 1013.3 |
| 20260507034538 | 77 | 158 | 0.0 | 3.0 | 0.00 | 0.00 | 0.00 | 24 | 1013.2 |
| 20260507033037 | 77 | 154 | 0.0 | 2.0 | 0.00 | 0.00 | 0.00 | 24 | 1013.0 |
| 20260507031542 | 78 | 155 | 1.0 | 2.0 | 0.00 | 0.00 | 0.00 | 24 | 1012.8 |
| 20260507030041 | 78 | 125 | 0.0 | 1.0 | 0.00 | 0.00 | 0.00 | 24 | 1012.7 |
| 20260507024538 | 79 | 141 | 1.0 | 3.0 | 0.00 | 0.00 | 0.00 | 22 | 1012.4 |
| 20260507023037 | 79 | 136 | 1.0 | 4.0 | 0.00 | 0.00 | 0.00 | 22 | 1012.3 |
| 20260507021539 | 80 | 140 | 2.0 | 5.0 | 0.00 | 0.00 | 0.00 | 22 | 1012.3 |
| 20260507020037 | 81 | 150 | 1.0 | 6.0 | 0.00 | 0.00 | 0.00 | 21 | 1012.2 |
| 20260507014546 | 82 | 148 | 1.0 | 5.0 | 0.00 | 0.00 | 0.00 | 20 | 1012.2 |
| 20260507013038 | 84 | 134 | 2.0 | 6.0 | 0.00 | 0.00 | 0.00 | 20 | 1012.2 |
| 20260507011538 | 84 | 142 | 1.0 | 5.0 | 0.00 | 0.00 | 0.00 | 19 | 1012.1 |
| 20260507010038 | 84 | 116 | 1.0 | 5.0 | 0.00 | 0.00 | 0.00 | 18 | 1012.1 |
| 20260507004538 | 84 | 141 | 1.0 | 6.0 | 0.00 | 0.00 | 0.00 | 18 | 1012.1 |
| 20260507003034 | 85 | 150 | 2.0 | 5.0 | 0.00 | 0.00 | 0.00 | 18 | 1012.1 |
| 20260507001538 | 85 | 0 | 1.0 | 6.0 | 0.00 | 0.00 | 0.00 | 18 | 1012.0 |
| 20260507000042 | 84 | 155 | 1.0 | 7.0 | 0.00 | 0.00 | 0.00 | 19 | 1012.0 |
| 20260506234537 | 85 | 135 | 4.0 | 8.0 | 0.00 | 0.00 | 0.00 | 19 | 1012.1 |
| 20260506233037 | 84 | 139 | 1.0 | 4.0 | 0.00 | 0.00 | 0.00 | 20 | 1012.3 |
| 20260506231535 | 84 | 133 | 3.0 | 9.0 | 0.00 | 0.00 | 0.00 | 20 | 1012.3 |
| 20260506230036 | 84 | 110 | 0.0 | 7.0 | 0.00 | 0.00 | 0.00 | 19 | 1012.5 |
| 20260506224538 | 84 | 139 | 3.0 | 8.0 | 0.00 | 0.00 | 0.00 | 19 | 1012.5 |
| 20260506223038 | 83 | 136 | 3.0 | 9.0 | 0.00 | 0.00 | 0.00 | 19 | 1012.8 |
| 20260506221537 | 84 | 135 | 3.0 | 6.0 | 0.00 | 0.00 | 0.00 | 20 | 1012.9 |
| 20260506220038 | 83 | 128 | 2.0 | 5.0 | 0.00 | 0.00 | 0.00 | 20 | 1013.1 |
| 20260506214537 | 83 | 229 | 2.0 | 10.0 | 0.00 | 0.00 | 0.00 | 21 | 1013.3 |
| 20260506213036 | 82 | 7 | 2.0 | 6.0 | 0.00 | 0.00 | 0.00 | 21 | 1013.6 |
| 20260506211538 | 82 | 175 | 2.0 | 6.0 | 0.00 | 0.00 | 0.00 | 21 | 1014.0 |
| 20260506210038 | 82 | 219 | 4.0 | 7.0 | 0.00 | 0.00 | 0.00 | 22 | 1014.3 |
| 20260506204537 | 83 | 108 | 2.0 | 4.0 | 0.00 | 0.00 | 0.00 | 21 | 1014.5 |
| 20260506203042 | 82 | 203 | 2.0 | 5.0 | 0.00 | 0.00 | 0.00 | 22 | 1014.7 |
| 20260506201545 | 81 | 155 | 2.0 | 7.0 | 0.00 | 0.00 | 0.00 | 23 | 1014.8 |
| 20260506200036 | 81 | 164 | 1.0 | 6.0 | 0.00 | 0.00 | 0.00 | 23 | 1014.9 |
| 20260506194548 | 80 | 149 | 3.0 | 7.0 | 0.00 | 0.00 | 0.00 | 23 | 1015.1 |
| 20260506193043 | 80 | 147 | 2.0 | 9.0 | 0.00 | 0.00 | 0.00 | 24 | 1015.2 |
| 20260506191541 | 79 | 108 | 1.0 | 4.0 | 0.00 | 0.00 | 0.00 | 24 | 1015.3 |
| 20260506190037 | 78 | 151 | 2.0 | 8.0 | 0.00 | 0.00 | 0.00 | 24 | 1015.5 |
| 20260506184547 | 79 | 134 | 1.0 | 5.0 | 0.00 | 0.00 | 0.00 | 25 | 1015.7 |
| 20260506183034 | 78 | 128 | 3.0 | 8.0 | 0.00 | 0.00 | 0.00 | 25 | 1016.0 |
| 20260506181540 | 78 | 120 | 2.0 | 5.0 | 0.00 | 0.00 | 0.00 | 27 | 1016.2 |
| 20260506180038 | 78 | 146 | 2.0 | 5.0 | 0.00 | 0.00 | 0.00 | 27 | 1016.2 |
| 20260506174534 | 76 | 94 | 2.0 | 6.0 | 0.00 | 0.00 | 0.00 | 30 | 1016.3 |
| 20260506173040 | 76 | 134 | 2.0 | 6.0 | 0.00 | 0.00 | 0.00 | 30 | 1016.3 |
| 20260506171544 | 75 | 354 | 1.0 | 4.0 | 0.00 | 0.00 | 0.00 | 30 | 1016.3 |
| 20260506170040 | 75 | 114 | 3.0 | 6.0 | 0.00 | 0.00 | 0.00 | 31 | 1016.2 |
| 20260506164538 | 74 | 149 | 1.0 | 5.0 | 0.00 | 0.01 | 0.00 | 32 | 1016.2 |
| 20260506163052 | 73 | 155 | 0.0 | 3.0 | 0.00 | 0.01 | 0.00 | 33 | 1016.2 |
| 20260506161542 | 72 | 161 | 1.0 | 3.0 | 0.00 | 0.01 | 0.00 | 34 | 1016.1 |
| 20260506160034 | 72 | 146 | 1.0 | 4.0 | 0.00 | 0.01 | 0.00 | 33 | 1016.2 |
| 20260506154543 | 71 | 134 | 1.0 | 3.0 | 0.00 | 0.01 | 0.00 | 34 | 1016.1 |
| 20260506153039 | 69 | 0 | 0.0 | 4.0 | 0.00 | 0.01 | 0.00 | 36 | 1016.2 |
| 20260506151539 | 69 | 183 | 1.0 | 4.0 | 0.00 | 0.01 | 0.00 | 37 | 1016.3 |
| 20260506150039 | 68 | 0 | 0.0 | 2.0 | 0.00 | 0.01 | 0.00 | 38 | 1016.3 |
| 20260506144538 | 66 | 217 | 1.0 | 2.0 | 0.00 | 0.01 | 0.00 | 41 | 1016.3 |